createdAt,value
2017-01-18T00:00:11.976Z,0
2017-01-18T00:02:24.491Z,0
2017-01-18T00:04:36.969Z,0
2017-01-18T00:06:44.957Z,0
2017-01-18T00:08:57.799Z,0
2017-01-18T00:11:10.273Z,0
2017-01-18T00:13:22.681Z,0
2017-01-18T00:15:35.056Z,0
2017-01-18T00:17:42.476Z,0
2017-01-18T00:19:50.518Z,0
2017-01-18T00:22:12.829Z,0
2017-01-18T00:24:25.065Z,0
2017-01-18T00:26:39.249Z,0
2017-01-18T00:28:51.658Z,0
2017-01-18T00:31:05.273Z,0
2017-01-18T00:33:14.552Z,0
2017-01-18T00:35:26.939Z,0
2017-01-18T00:37:39.299Z,0
2017-01-18T00:39:51.815Z,0
2017-01-18T00:42:02.749Z,0
2017-01-18T00:44:15.743Z,0
2017-01-18T00:46:28.768Z,0
2017-01-18T00:48:41.074Z,0
2017-01-18T00:50:57.261Z,0
2017-01-18T00:53:10.081Z,0
2017-01-18T00:55:22.760Z,0
2017-01-18T00:57:36.775Z,0
2017-01-18T00:59:49.096Z,0
2017-01-18T01:02:02.921Z,0
2017-01-18T01:04:15.297Z,0
2017-01-18T01:06:29.632Z,0
2017-01-18T01:08:43.006Z,0
2017-01-18T01:10:57.745Z,0
2017-01-18T01:13:10.797Z,0
2017-01-18T01:15:25.996Z,0
2017-01-18T01:17:34.420Z,0
2017-01-18T01:19:46.858Z,0
2017-01-18T01:21:59.534Z,0
2017-01-18T01:24:11.934Z,0
2017-01-18T01:26:24.527Z,0
2017-01-18T01:28:38.536Z,0
2017-01-18T01:30:45.757Z,0
2017-01-18T01:33:00.568Z,0
2017-01-18T01:35:13.018Z,0
2017-01-18T01:37:25.749Z,0
2017-01-18T01:39:38.236Z,0
2017-01-18T01:41:46.308Z,0
2017-01-18T01:43:59.318Z,0
2017-01-18T01:46:11.629Z,0
2017-01-18T01:48:23.968Z,0
2017-01-18T01:50:36.161Z,0
2017-01-18T01:52:48.839Z,0
2017-01-18T01:55:00.540Z,0
2017-01-18T01:57:12.947Z,0
2017-01-18T01:59:25.188Z,0
2017-01-18T02:01:38.273Z,0
2017-01-18T02:03:50.480Z,0
2017-01-18T02:06:03.088Z,0
2017-01-18T02:08:15.602Z,0
2017-01-18T02:10:28.465Z,0
2017-01-18T02:12:40.170Z,0
2017-01-18T02:14:53.614Z,0
2017-01-18T02:17:05.885Z,0
2017-01-18T02:19:13.230Z,0
2017-01-18T02:21:25.636Z,0
2017-01-18T02:23:38.813Z,0
2017-01-18T02:25:46.129Z,0
2017-01-18T02:27:54.722Z,0
2017-01-18T02:30:07.141Z,0
2017-01-18T02:32:15.355Z,0
2017-01-18T02:34:28.736Z,0
2017-01-18T02:36:41.351Z,0
2017-01-18T02:38:53.996Z,0
2017-01-18T02:41:07.177Z,0
2017-01-18T02:43:19.742Z,0
2017-01-18T02:45:28.298Z,0
2017-01-18T02:47:37.863Z,0
2017-01-18T02:49:50.989Z,0
2017-01-18T02:52:04.641Z,0
2017-01-18T02:54:17.585Z,0
2017-01-18T02:56:30.793Z,0
2017-01-18T02:58:45.652Z,0
2017-01-18T03:01:00.582Z,0
2017-01-18T03:03:10.025Z,0
2017-01-18T03:05:23.330Z,0
2017-01-18T03:07:35.957Z,0
2017-01-18T03:09:48.596Z,0
2017-01-18T03:11:55.869Z,0
2017-01-18T03:14:08.244Z,0
2017-01-18T03:16:20.953Z,0
2017-01-18T03:18:33.472Z,0
2017-01-18T03:20:45.717Z,0
2017-01-18T03:22:58.020Z,0
2017-01-18T03:25:10.419Z,0
2017-01-18T03:27:22.786Z,0
2017-01-18T03:29:30.305Z,0
2017-01-18T03:31:42.575Z,0
2017-01-18T03:33:54.833Z,0
2017-01-18T03:36:07.268Z,0
2017-01-18T03:38:20.730Z,0
2017-01-18T03:40:33.139Z,0
2017-01-18T03:42:45.880Z,0
2017-01-18T03:44:59.025Z,0
2017-01-18T03:47:12.049Z,0
2017-01-18T03:49:19.442Z,0
2017-01-18T03:51:31.710Z,0
2017-01-18T03:53:44.369Z,0
2017-01-18T03:55:56.948Z,0
2017-01-18T03:58:09.208Z,0
2017-01-18T04:00:16.687Z,0
2017-01-18T04:02:29.012Z,0
2017-01-18T04:04:36.491Z,0
2017-01-18T04:06:48.767Z,0
2017-01-18T04:09:01.867Z,0
2017-01-18T04:11:09.443Z,0
2017-01-18T04:13:21.747Z,0
2017-01-18T04:15:34.399Z,0
2017-01-18T04:17:50.201Z,0
2017-01-18T04:20:02.685Z,0
2017-01-18T04:22:15.150Z,0
2017-01-18T04:24:27.801Z,0
2017-01-18T04:26:40.938Z,0
2017-01-18T04:28:53.410Z,0
2017-01-18T04:31:05.845Z,0
2017-01-18T04:33:18.481Z,0
2017-01-18T04:35:25.866Z,0
2017-01-18T04:37:38.363Z,0
2017-01-18T04:39:45.823Z,0
2017-01-18T04:41:58.617Z,0
2017-01-18T04:44:10.886Z,0
2017-01-18T04:46:23.235Z,0
2017-01-18T04:48:35.750Z,0
2017-01-18T04:50:48.539Z,0
2017-01-18T04:53:01.334Z,0
2017-01-18T04:55:13.787Z,0
2017-01-18T04:57:26.068Z,0
2017-01-18T04:59:38.309Z,0
2017-01-18T05:01:50.571Z,0
2017-01-18T05:03:57.853Z,0
2017-01-18T05:06:10.396Z,0
2017-01-18T05:08:22.765Z,0
2017-01-18T05:10:37.038Z,0
2017-01-18T05:12:51.310Z,0
2017-01-18T05:15:06.527Z,0
2017-01-18T05:17:22.923Z,0
2017-01-18T05:19:37.002Z,0
2017-01-18T05:21:53.209Z,0
2017-01-18T05:24:07.045Z,0
2017-01-18T05:26:17.460Z,0
2017-01-18T05:28:27.287Z,0
2017-01-18T05:30:40.598Z,0
2017-01-18T05:32:49.596Z,0
2017-01-18T05:35:05.502Z,0
2017-01-18T05:37:19.201Z,0
2017-01-18T05:39:34.804Z,0
2017-01-18T05:41:50.788Z,0
2017-01-18T05:44:03.308Z,0
2017-01-18T05:46:20.897Z,0
2017-01-18T05:48:35.064Z,0
2017-01-18T05:50:48.971Z,0
2017-01-18T05:53:03.303Z,0
2017-01-18T05:55:16.003Z,0
2017-01-18T05:57:28.178Z,0
2017-01-18T05:59:40.769Z,0
2017-01-18T06:01:50.575Z,0
2017-01-18T06:04:02.828Z,0
2017-01-18T06:06:17.309Z,0
2017-01-18T06:08:32.184Z,0
2017-01-18T06:10:42.127Z,0
2017-01-18T06:12:57.825Z,0
2017-01-18T06:15:12.763Z,0
2017-01-18T06:17:26.480Z,0
2017-01-18T06:19:39.670Z,0
2017-01-18T06:21:53.436Z,0
2017-01-18T06:24:11.522Z,0
2017-01-18T06:26:32.164Z,0
2017-01-18T06:29:04.837Z,0
2017-01-18T06:31:17.649Z,0
2017-01-18T06:33:23.425Z,0
2017-01-18T06:35:37.210Z,0
2017-01-18T06:37:45.072Z,0
2017-01-18T06:39:58.189Z,0
2017-01-18T06:42:10.603Z,0
2017-01-18T06:44:23.211Z,0
2017-01-18T06:46:36.495Z,0
2017-01-18T06:48:50.285Z,0
2017-01-18T06:51:03.470Z,5
2017-01-18T06:53:15.944Z,5
2017-01-18T06:55:31.255Z,5
2017-01-18T06:57:43.489Z,10
2017-01-18T06:59:57.604Z,10
2017-01-18T07:02:10.001Z,10
2017-01-18T07:04:23.837Z,15
2017-01-18T07:06:37.600Z,20
2017-01-18T07:08:50.000Z,20
2017-01-18T07:11:03.855Z,25
2017-01-18T07:13:11.546Z,30
2017-01-18T07:15:24.580Z,30
2017-01-18T07:17:32.012Z,35
2017-01-18T07:19:47.066Z,40
2017-01-18T07:22:01.606Z,45
2017-01-18T07:24:09.580Z,55
2017-01-18T07:26:23.988Z,65
2017-01-18T07:28:36.312Z,65
2017-01-18T07:30:49.879Z,70
2017-01-18T07:33:03.041Z,80
2017-01-18T07:35:16.852Z,85
2017-01-18T07:37:29.115Z,100
2017-01-18T07:39:41.777Z,100
2017-01-18T07:41:54.399Z,110
2017-01-18T07:44:07.077Z,115
2017-01-18T07:46:21.432Z,120
2017-01-18T07:48:36.870Z,120
2017-01-18T07:50:52.023Z,130
2017-01-18T07:53:05.968Z,135
2017-01-18T07:55:18.316Z,145
2017-01-18T07:57:35.903Z,155
2017-01-18T07:59:51.256Z,155
2017-01-18T08:02:01.896Z,170
2017-01-18T08:04:15.470Z,175
2017-01-18T08:06:28.325Z,185
2017-01-18T08:08:43.241Z,195
2017-01-18T08:10:53.504Z,210
2017-01-18T08:13:08.558Z,190
2017-01-18T08:15:24.945Z,205
2017-01-18T08:17:40.478Z,215
2017-01-18T08:19:48.429Z,225
2017-01-18T08:21:58.859Z,260
2017-01-18T08:24:11.141Z,240
2017-01-18T08:28:28.999Z,270
2017-01-18T08:30:41.153Z,280
2017-01-18T08:32:49.833Z,275
2017-01-18T08:35:02.640Z,295
2017-01-18T08:37:09.896Z,300
2017-01-18T08:39:23.495Z,295
2017-01-18T08:41:35.726Z,310
2017-01-18T08:43:43.226Z,325
2017-01-18T08:45:55.702Z,305
2017-01-18T08:48:09.475Z,335
2017-01-18T08:50:22.930Z,290
2017-01-18T08:52:35.253Z,335
2017-01-18T08:54:48.262Z,275
2017-01-18T08:57:05.690Z,335
2017-01-18T08:59:18.052Z,315
2017-01-18T09:01:30.265Z,355
2017-01-18T09:03:43.963Z,310
2017-01-18T09:05:56.235Z,375
2017-01-18T09:08:09.448Z,325
2017-01-18T09:10:24.147Z,400
2017-01-18T09:12:37.149Z,340
2017-01-18T09:14:49.407Z,375
2017-01-18T09:17:01.695Z,315
2017-01-18T09:19:17.707Z,375
2017-01-18T09:21:31.578Z,355
2017-01-18T09:23:44.531Z,375
2017-01-18T09:25:58.860Z,375
2017-01-18T09:28:13.560Z,365
2017-01-18T09:30:29.991Z,365
2017-01-18T09:32:44.931Z,410
2017-01-18T09:34:57.847Z,405
2017-01-18T09:37:12.372Z,370
2017-01-18T09:39:23.470Z,380
2017-01-18T09:41:38.601Z,405
2017-01-18T09:43:53.145Z,400
2017-01-18T09:46:06.463Z,405
2017-01-18T09:48:20.202Z,390
2017-01-18T09:50:35.864Z,435
2017-01-18T09:52:49.236Z,385
2017-01-18T09:55:02.312Z,420
2017-01-18T09:57:15.976Z,395
2017-01-18T09:59:30.638Z,420
2017-01-18T10:01:44.284Z,390
2017-01-18T10:03:57.181Z,405
2017-01-18T10:06:06.410Z,435
2017-01-18T10:08:18.948Z,405
2017-01-18T10:10:33.106Z,420
2017-01-18T10:12:46.059Z,395
2017-01-18T10:14:53.386Z,450
2017-01-18T10:17:05.829Z,440
2017-01-18T10:19:08.327Z,470
2017-01-18T10:21:18.899Z,475
2017-01-18T10:23:31.381Z,425
2017-01-18T10:25:42.015Z,420
2017-01-18T10:27:54.311Z,475
2017-01-18T10:30:06.699Z,415
2017-01-18T10:32:19.226Z,435
2017-01-18T10:34:31.579Z,450
2017-01-18T10:36:39.559Z,450
2017-01-18T10:38:52.226Z,470
2017-01-18T10:41:04.754Z,455
2017-01-18T10:43:12.079Z,475
2017-01-18T10:45:24.467Z,535
2017-01-18T10:47:26.820Z,515
2017-01-18T10:49:39.067Z,535
2017-01-18T10:51:46.695Z,525
2017-01-18T10:53:59.018Z,590
2017-01-18T10:56:06.273Z,510
2017-01-18T10:58:13.491Z,640
2017-01-18T11:00:25.815Z,525
2017-01-18T11:02:38.343Z,605
2017-01-18T11:04:50.672Z,535
2017-01-18T11:07:03.035Z,550
2017-01-18T11:09:15.538Z,535
2017-01-18T11:11:28.250Z,520
2017-01-18T11:13:40.863Z,470
2017-01-18T11:15:53.310Z,470
2017-01-18T11:18:05.782Z,470
2017-01-18T11:20:18.275Z,470
2017-01-18T11:22:30.588Z,470
2017-01-18T11:24:42.893Z,470
2017-01-18T11:26:55.118Z,420
2017-01-18T11:29:07.402Z,425
2017-01-18T11:31:19.747Z,440
2017-01-18T11:33:32.026Z,445
2017-01-18T11:35:44.359Z,415
2017-01-18T11:37:56.595Z,540
2017-01-18T11:40:09.217Z,435
2017-01-18T11:42:21.579Z,510
2017-01-18T11:44:33.873Z,450
2017-01-18T11:46:46.453Z,480
2017-01-18T11:48:59.694Z,515
2017-01-18T11:51:11.970Z,565
2017-01-18T11:53:19.533Z,535
2017-01-18T11:55:31.750Z,535
2017-01-18T11:57:39.165Z,455
2017-01-18T11:59:51.421Z,480
2017-01-18T12:02:04.415Z,475
2017-01-18T12:04:22.217Z,440
2017-01-18T12:06:34.397Z,445
2017-01-18T12:08:46.824Z,495
2017-01-18T12:10:59.219Z,480
2017-01-18T12:13:11.454Z,480
2017-01-18T12:15:23.917Z,405
2017-01-18T12:17:36.267Z,465
2017-01-18T12:19:48.984Z,445
2017-01-18T12:22:01.947Z,475
2017-01-18T12:24:17.355Z,430
2017-01-18T12:26:30.117Z,440
2017-01-18T12:28:45.707Z,535
2017-01-18T12:31:01.239Z,415
2017-01-18T12:33:08.547Z,430
2017-01-18T12:35:22.703Z,420
2017-01-18T12:37:39.051Z,410
2017-01-18T12:39:54.575Z,360
2017-01-18T12:42:06.987Z,390
2017-01-18T12:44:24.287Z,395
2017-01-18T12:46:38.815Z,380
2017-01-18T12:48:53.030Z,365
2017-01-18T12:51:07.119Z,335
2017-01-18T12:53:22.801Z,340
2017-01-18T12:55:40.674Z,310
2017-01-18T12:57:57.212Z,370
2017-01-18T13:00:13.451Z,345
2017-01-18T13:02:31.685Z,365
2017-01-18T13:04:43.782Z,380
2017-01-18T13:06:59.139Z,375
2017-01-18T13:09:14.711Z,390
2017-01-18T13:11:30.708Z,360
2017-01-18T13:13:45.209Z,365
2017-01-18T13:15:58.243Z,340
2017-01-18T13:18:07.346Z,345
2017-01-18T13:20:23.013Z,360
2017-01-18T13:22:32.396Z,370
2017-01-18T13:24:48.354Z,350
2017-01-18T13:27:03.329Z,330
2017-01-18T13:29:17.785Z,290
2017-01-18T13:31:35.277Z,305
2017-01-18T13:33:43.712Z,300
2017-01-18T13:35:59.928Z,300
2017-01-18T13:38:17.666Z,320
2017-01-18T13:40:32.216Z,380
2017-01-18T13:42:49.449Z,330
2017-01-18T13:45:02.009Z,320
2017-01-18T13:47:20.152Z,300
2017-01-18T13:49:33.971Z,305
2017-01-18T13:51:49.738Z,310
2017-01-18T13:54:04.849Z,275
2017-01-18T13:56:14.517Z,265
2017-01-18T13:58:29.750Z,240
2017-01-18T14:00:43.505Z,255
2017-01-18T14:02:57.795Z,220
2017-01-18T14:07:29.858Z,210
2017-01-18T14:09:45.273Z,215
2017-01-18T14:11:59.980Z,290
2017-01-18T14:14:12.332Z,245
2017-01-18T14:16:29.898Z,220
2017-01-18T14:18:42.587Z,215
2017-01-18T14:20:56.606Z,195
2017-01-18T14:23:12.412Z,180
2017-01-18T14:25:28.709Z,175
2017-01-18T14:27:46.056Z,155
2017-01-18T14:30:01.700Z,155
2017-01-18T14:32:17.030Z,145
2017-01-18T14:34:32.973Z,135
2017-01-18T14:36:47.453Z,120
2017-01-18T14:39:05.315Z,120
2017-01-18T14:41:20.802Z,125
2017-01-18T14:43:37.989Z,120
2017-01-18T14:45:54.924Z,120
2017-01-18T14:48:08.156Z,125
2017-01-18T14:50:20.678Z,115
2017-01-18T14:52:33.299Z,105
2017-01-18T14:54:45.880Z,105
2017-01-18T14:56:58.226Z,105
2017-01-18T14:59:10.563Z,110
2017-01-18T15:01:22.860Z,100
2017-01-18T15:03:35.559Z,85
2017-01-18T15:05:51.577Z,85
2017-01-18T15:08:07.479Z,85
2017-01-18T15:10:23.595Z,75
2017-01-18T15:12:35.524Z,65
2017-01-18T15:14:50.580Z,60
2017-01-18T15:17:08.383Z,55
2017-01-18T15:19:21.606Z,55
2017-01-18T15:21:37.724Z,50
2017-01-18T15:23:54.978Z,45
2017-01-18T15:26:10.361Z,40
2017-01-18T15:28:27.227Z,40
2017-01-18T15:30:43.163Z,35
2017-01-18T15:32:59.019Z,30
2017-01-18T15:35:15.444Z,25
2017-01-18T15:37:32.352Z,20
2017-01-18T15:39:46.100Z,20
2017-01-18T15:41:58.579Z,15
2017-01-18T15:44:06.848Z,15
2017-01-18T15:46:19.239Z,15
2017-01-18T15:48:32.227Z,10
2017-01-18T15:50:40.259Z,10
2017-01-18T15:52:52.582Z,5
2017-01-18T15:55:05.953Z,5
2017-01-18T15:57:18.777Z,5
2017-01-18T15:59:31.263Z,5
2017-01-18T16:01:44.184Z,0
2017-01-18T16:03:56.475Z,0
2017-01-18T16:06:08.861Z,0
2017-01-18T16:08:22.910Z,0
2017-01-18T16:10:36.547Z,0
2017-01-18T16:12:43.920Z,0
2017-01-18T16:14:56.513Z,0
2017-01-18T16:17:08.884Z,0
2017-01-18T16:19:21.800Z,0
2017-01-18T16:21:34.540Z,0
2017-01-18T16:23:47.956Z,0
2017-01-18T16:26:04.396Z,0
2017-01-18T16:28:17.728Z,0
2017-01-18T16:30:33.299Z,0
2017-01-18T16:32:48.324Z,0
2017-01-18T16:34:57.177Z,0
2017-01-18T16:37:13.877Z,0
2017-01-18T16:39:27.945Z,0
2017-01-18T16:41:43.746Z,0
2017-01-18T16:43:57.116Z,0
2017-01-18T16:46:12.038Z,0
2017-01-18T16:48:25.239Z,0
2017-01-18T16:50:39.478Z,0
2017-01-18T16:52:49.241Z,0
2017-01-18T16:55:03.639Z,0
2017-01-18T16:57:16.279Z,0
2017-01-18T16:59:31.100Z,0
2017-01-18T17:01:39.097Z,0
2017-01-18T17:03:52.998Z,0
2017-01-18T17:06:06.933Z,0
2017-01-18T17:08:16.751Z,0
2017-01-18T17:10:30.573Z,0
2017-01-18T17:12:38.495Z,0
2017-01-18T17:14:51.854Z,0
2017-01-18T17:17:05.764Z,0
2017-01-18T17:19:20.018Z,0
2017-01-18T17:21:33.501Z,0
2017-01-18T17:23:48.899Z,0
2017-01-18T17:26:03.370Z,0
2017-01-18T17:28:18.414Z,0
2017-01-18T17:30:33.381Z,0
2017-01-18T17:32:49.495Z,0
2017-01-18T17:35:04.407Z,0
2017-01-18T17:37:16.642Z,0
2017-01-18T17:39:29.045Z,0
2017-01-18T17:41:41.302Z,0
2017-01-18T17:43:53.998Z,0
2017-01-18T17:46:06.391Z,0
2017-01-18T17:48:14.704Z,0
2017-01-18T17:50:22.874Z,0
2017-01-18T17:52:35.525Z,0
2017-01-18T17:54:43.239Z,0
2017-01-18T17:56:56.371Z,0
2017-01-18T17:59:14.659Z,0
2017-01-18T18:01:32.552Z,0
2017-01-18T18:03:46.361Z,0
2017-01-18T18:05:56.672Z,0
2017-01-18T18:08:12.055Z,0
2017-01-18T18:10:28.052Z,0
2017-01-18T18:12:43.270Z,0
2017-01-18T18:14:56.297Z,0
2017-01-18T18:17:03.586Z,0
2017-01-18T18:19:16.131Z,0
2017-01-18T18:21:28.519Z,0
2017-01-18T18:23:35.829Z,0
2017-01-18T18:25:48.348Z,0
2017-01-18T18:28:01.773Z,0
2017-01-18T18:30:14.195Z,0
2017-01-18T18:32:27.593Z,0
2017-01-18T18:34:40.252Z,0
2017-01-18T18:36:52.645Z,0
2017-01-18T18:39:05.184Z,0
2017-01-18T18:41:12.687Z,0
2017-01-18T18:43:25.008Z,0
2017-01-18T18:45:37.226Z,0
2017-01-18T18:47:49.736Z,0
2017-01-18T18:52:12.962Z,0
2017-01-18T18:54:25.534Z,0
2017-01-18T18:56:38.213Z,0
2017-01-18T18:58:51.237Z,0
2017-01-18T19:01:05.857Z,0
2017-01-18T19:03:19.316Z,0
2017-01-18T19:05:33.042Z,0
2017-01-18T19:07:45.415Z,0
2017-01-18T19:12:10.803Z,0
2017-01-18T19:14:23.216Z,0
2017-01-18T19:16:35.600Z,0
2017-01-18T19:18:47.909Z,0
2017-01-18T19:21:01.053Z,0
2017-01-18T19:23:14.120Z,0
2017-01-18T19:25:26.574Z,0
2017-01-18T19:27:38.913Z,0
2017-01-18T19:29:52.105Z,0
2017-01-18T19:32:04.633Z,0
2017-01-18T19:34:17.230Z,0
2017-01-18T19:36:29.622Z,0
2017-01-18T19:38:42.033Z,0
2017-01-18T19:40:55.341Z,0
2017-01-18T19:43:07.741Z,0
2017-01-18T19:45:20.049Z,0
2017-01-18T19:47:34.403Z,0
2017-01-18T19:49:41.757Z,0
2017-01-18T19:51:54.262Z,0
2017-01-18T19:54:06.848Z,0
2017-01-18T19:56:19.401Z,0
2017-01-18T19:58:31.728Z,0
2017-01-18T20:00:44.072Z,0
2017-01-18T20:02:51.712Z,0
2017-01-18T20:04:59.063Z,0
2017-01-18T20:07:11.317Z,0
2017-01-18T20:09:23.955Z,0
2017-01-18T20:11:37.513Z,0
2017-01-18T20:13:49.785Z,0
2017-01-18T20:16:02.392Z,0
2017-01-18T20:18:14.850Z,0
2017-01-18T20:20:27.455Z,0
2017-01-18T20:22:39.914Z,0
2017-01-18T20:24:47.210Z,0
2017-01-18T20:26:59.648Z,0
2017-01-18T20:29:11.991Z,0
2017-01-18T20:31:24.395Z,0
2017-01-18T20:33:36.612Z,0
2017-01-18T20:35:52.425Z,0
2017-01-18T20:38:06.133Z,0
2017-01-18T20:40:19.774Z,0
2017-01-18T20:42:27.625Z,0
2017-01-18T20:44:40.499Z,0
2017-01-18T20:46:53.162Z,0
2017-01-18T20:49:06.214Z,0
2017-01-18T20:51:18.575Z,0
2017-01-18T20:53:31.277Z,0
2017-01-18T20:55:45.326Z,0
2017-01-18T20:57:59.540Z,0
2017-01-18T21:00:09.816Z,0
2017-01-18T21:02:18.616Z,0
2017-01-18T21:04:30.896Z,0
2017-01-18T21:06:39.243Z,0
2017-01-18T21:08:55.583Z,0
2017-01-18T21:11:07.894Z,0
2017-01-18T21:13:37.631Z,0
2017-01-18T21:15:50.087Z,0
2017-01-18T21:18:02.938Z,0
2017-01-18T21:20:15.729Z,0
2017-01-18T21:22:28.127Z,0
2017-01-18T21:24:40.483Z,0
2017-01-18T21:27:00.966Z,0
2017-01-18T21:29:13.310Z,0
2017-01-18T21:31:25.838Z,0
2017-01-18T21:33:38.207Z,0
2017-01-18T21:35:50.514Z,0
2017-01-18T21:38:02.984Z,0
2017-01-18T21:40:15.635Z,0
2017-01-18T21:42:28.212Z,0
2017-01-18T21:44:40.521Z,0
2017-01-18T21:46:53.004Z,0
2017-01-18T21:49:00.460Z,0
2017-01-18T21:51:17.095Z,0
2017-01-18T21:53:29.522Z,0
2017-01-18T21:55:53.045Z,0
2017-01-18T21:58:05.533Z,0
2017-01-18T22:00:19.089Z,0
2017-01-18T22:02:31.660Z,0
2017-01-18T22:04:43.853Z,0
2017-01-18T22:06:56.179Z,0
2017-01-18T22:09:08.682Z,0
2017-01-18T22:11:21.076Z,0
2017-01-18T22:13:33.481Z,0
2017-01-18T22:15:40.857Z,0
2017-01-18T22:17:54.927Z,0
2017-01-18T22:20:02.156Z,0
2017-01-18T22:22:14.645Z,0
2017-01-18T22:24:27.275Z,0
2017-01-18T22:26:39.515Z,0
2017-01-18T22:28:52.001Z,0
2017-01-18T22:31:04.803Z,0
2017-01-18T22:33:17.181Z,0
2017-01-18T22:35:29.476Z,0
2017-01-18T22:37:41.770Z,0
2017-01-18T22:39:48.939Z,0
2017-01-18T22:42:01.225Z,0
2017-01-18T22:44:13.468Z,0
2017-01-18T22:46:25.825Z,0
2017-01-18T22:48:38.126Z,0
2017-01-18T22:50:50.389Z,0
2017-01-18T22:53:02.727Z,0
2017-01-18T22:55:15.181Z,0
2017-01-18T22:57:27.589Z,0
2017-01-18T22:59:35.098Z,0
2017-01-18T23:01:42.324Z,0
2017-01-18T23:03:54.707Z,0
2017-01-18T23:06:07.530Z,0
2017-01-18T23:08:19.929Z,0
2017-01-18T23:10:27.508Z,0
2017-01-18T23:12:39.732Z,0
2017-01-18T23:14:52.025Z,0
2017-01-18T23:17:04.358Z,0
2017-01-18T23:19:16.738Z,0
2017-01-18T23:21:29.069Z,0
2017-01-18T23:23:31.393Z,0
2017-01-18T23:25:43.738Z,0
2017-01-18T23:27:56.293Z,0
2017-01-18T23:30:08.726Z,0
2017-01-18T23:32:21.201Z,0
2017-01-18T23:34:33.574Z,0
2017-01-18T23:36:45.775Z,0
2017-01-18T23:39:01.517Z,0
2017-01-18T23:41:15.637Z,0
2017-01-18T23:43:28.003Z,0
2017-01-18T23:45:40.245Z,0
2017-01-18T23:47:53.375Z,0
2017-01-18T23:50:08.962Z,0
2017-01-18T23:52:23.774Z,0
2017-01-18T23:54:40.307Z,0
2017-01-18T23:56:54.135Z,0
2017-01-18T23:59:20.632Z,0
